Time;durP1;ratioP1;P1;durP2;ratioP2;P2;SDS_P1;SDS_P2;PMS_P1;PMS_P2;Temp;Humidity;BMP_temperature;BMP_pressure;BME280_temperature;BME280_humidity;BME280_pressure;Samples;Min_cycle;Max_cycle;Signal;HPM_P1;HPM_P2
2023/01/19 00:01:46;;;;;;;;;6.00;6.00;;;;;-144.24;100.00;60536.00;5077999;28;9582;-74
2023/01/19 00:04:11;;;;;;;;;11.50;9.25;;;;;-144.24;100.00;60536.00;5075571;28;19619;-77
2023/01/19 00:06:37;;;;;;;;;9.00;9.00;;;;;-144.24;100.00;60536.00;5081365;28;8877;-77
2023/01/19 00:09:02;;;;;;;;;13.25;6.25;;;;;-144.24;100.00;60536.00;5067852;28;23689;-74
2023/01/19 00:11:27;;;;;;;;;8.75;8.25;;;;;-144.24;100.00;60536.00;5080207;28;22254;-74
2023/01/19 00:13:53;;;;;;;;;9.75;6.00;;;;;-144.24;100.00;60536.00;5082800;28;19037;-76
2023/01/19 00:16:21;;;;;;;;;9.25;6.50;;;;;-144.24;100.00;60536.00;5091297;28;17607;-74
2023/01/19 00:18:49;;;;;;;;;8.50;6.00;;;;;-144.24;100.00;60536.00;5070442;28;8829;-74
2023/01/19 00:21:14;;;;;;;;;13.00;6.50;;;;;-144.24;100.00;60536.00;5088663;28;8807;-76
2023/01/19 00:23:40;;;;;;;;;6.00;6.00;;;;;-144.24;100.00;60536.00;5057818;28;8830;-73
2023/01/19 00:26:05;;;;;;;;;14.00;9.50;;;;;-144.24;100.00;60536.00;5064339;28;8808;-75
2023/01/19 00:28:30;;;;;;;;;12.00;8.25;;;;;-144.24;100.00;60536.00;5080419;28;8819;-76
2023/01/19 00:30:56;;;;;;;;;9.25;8.00;;;;;-144.24;100.00;60536.00;5082585;28;22687;-74
2023/01/19 00:33:21;;;;;;;;;7.50;6.00;;;;;-144.24;100.00;60536.00;5082403;28;22024;-74
2023/01/19 00:35:51;;;;;;;;;7.75;6.00;;;;;-144.24;100.00;60536.00;5082152;28;22005;-75
2023/01/19 00:38:17;;;;;;;;;9.75;6.00;;;;;-144.24;100.00;60536.00;5078353;28;8807;-73
2023/01/19 00:40:42;;;;;;;;;8.50;4.75;;;;;-144.24;100.00;60536.00;5087815;28;8780;-76
2023/01/19 00:43:07;;;;;;;;;4.00;4.00;;;;;-144.24;100.00;60536.00;5083941;28;17683;-73
2023/01/19 00:45:33;;;;;;;;;12.75;8.50;;;;;-144.24;100.00;60536.00;5081456;28;8827;-76
2023/01/19 00:47:59;;;;;;;;;6.00;6.00;;;;;-144.24;100.00;60536.00;5072618;28;8823;-73
2023/01/19 00:50:26;;;;;;;;;8.00;8.00;;;;;-144.24;100.00;60536.00;5079509;28;21067;-75
2023/01/19 00:52:53;;;;;;;;;6.50;6.50;;;;;-144.24;100.00;60536.00;5075918;28;8912;-74
2023/01/19 00:55:19;;;;;;;;;8.00;8.00;;;;;-144.24;100.00;60536.00;5086240;28;9626;-74
2023/01/19 00:57:44;;;;;;;;;10.00;6.50;;;;;-144.24;100.00;60536.00;5078206;28;8807;-75
2023/01/19 01:00:12;;;;;;;;;6.50;5.50;;;;;-144.24;100.00;60536.00;5081806;28;8818;-74
2023/01/19 01:02:38;;;;;;;;;8.50;6.00;;;;;-144.24;100.00;60536.00;5078892;28;8823;-73
2023/01/19 01:05:05;;;;;;;;;6.00;5.00;;;;;-144.24;100.00;60536.00;5081507;28;8841;-75
2023/01/19 01:07:39;;;;;;;;;7.00;4.25;;;;;-144.24;100.00;60536.00;5077330;28;9571;-74
2023/01/19 01:10:07;;;;;;;;;8.00;5.25;;;;;-144.24;100.00;60536.00;5067130;28;8817;-75
2023/01/19 01:12:32;;;;;;;;;9.75;6.00;;;;;-144.24;100.00;60536.00;5083047;28;8805;-74
2023/01/19 01:14:57;;;;;;;;;9.50;6.00;;;;;-144.24;100.00;60536.00;5080267;28;22389;-75
2023/01/19 01:17:23;;;;;;;;;8.00;6.00;;;;;-144.24;100.00;60536.00;5078283;28;8892;-77
2023/01/19 01:19:50;;;;;;;;;8.50;4.50;;;;;-144.24;100.00;60536.00;5074793;28;8791;-74
2023/01/19 01:22:16;;;;;;;;;14.75;8.50;;;;;-144.24;100.00;60536.00;5064539;28;8784;-75
2023/01/19 01:24:41;;;;;;;;;3.50;3.50;;;;;-144.24;100.00;60536.00;5090812;28;21038;-75
2023/01/19 01:27:06;;;;;;;;;5.50;5.50;;;;;-144.24;100.00;60536.00;5084646;28;25277;-75
2023/01/19 01:29:34;;;;;;;;;13.50;8.75;;;;;-144.24;100.00;60536.00;5080547;28;8812;-74
2023/01/19 01:31:59;;;;;;;;;9.25;8.00;;;;;-144.24;100.00;60536.00;5077680;28;8829;-74
2023/01/19 01:34:25;;;;;;;;;8.25;6.00;;;;;-144.24;100.00;60536.00;5080103;28;8815;-74
2023/01/19 01:36:50;;;;;;;;;11.00;6.50;;;;;-144.24;100.00;60536.00;5070148;28;23331;-73
2023/01/19 01:39:15;;;;;;;;;9.25;9.00;;;;;-144.24;100.00;60536.00;5089924;28;8820;-73
2023/01/19 01:41:41;;;;;;;;;9.25;8.25;;;;;-144.24;100.00;60536.00;5086566;28;9522;-75
2023/01/19 01:44:48;;;;;;;;;7.00;6.50;;;;;-144.24;100.00;60536.00;5079543;28;10699;-74
2023/01/19 01:47:16;;;;;;;;;12.75;8.00;;;;;-144.24;100.00;60536.00;5073718;28;8938;-74
2023/01/19 01:49:42;;;;;;;;;7.50;6.00;;;;;-144.24;100.00;60536.00;5066339;28;8826;-75
2023/01/19 01:52:07;;;;;;;;;8.25;6.00;;;;;-144.24;100.00;60536.00;5072957;28;8846;-74
2023/01/19 01:54:32;;;;;;;;;9.25;7.50;;;;;-144.24;100.00;60536.00;5071721;28;18481;-74
2023/01/19 01:57:02;;;;;;;;;4.75;4.75;;;;;-144.24;100.00;60536.00;5087828;28;12864;-74
2023/01/19 01:59:37;;;;;;;;;7.50;6.50;;;;;-144.24;100.00;60536.00;5070316;28;8811;-74
2023/01/19 02:04:58;;;;;;;;;16.50;8.00;;;;;-144.24;100.00;60536.00;5080209;28;8789;-76
2023/01/19 02:13:18;;;;;;;;;15.00;10.25;;;;;-144.24;100.00;60536.00;5072933;28;8811;-73
2023/01/19 02:15:44;;;;;;;;;12.75;8.00;;;;;-144.24;100.00;60536.00;5082856;28;8812;-74
2023/01/19 02:18:10;;;;;;;;;8.25;5.75;;;;;-144.24;100.00;60536.00;5081531;28;8837;-73
2023/01/19 02:20:36;;;;;;;;;8.75;5.25;;;;;-144.24;100.00;60536.00;5064214;28;12413;-76
2023/01/19 02:23:06;;;;;;;;;10.25;7.00;;;;;-144.24;100.00;60536.00;5086936;28;8845;-75
2023/01/19 02:25:32;;;;;;;;;6.50;5.50;;;;;-144.24;100.00;60536.00;5059921;28;8811;-74
2023/01/19 02:27:57;;;;;;;;;8.00;5.25;;;;;-144.24;100.00;60536.00;5084047;28;24168;-74
2023/01/19 02:30:23;;;;;;;;;16.00;9.00;;;;;-144.24;100.00;60536.00;5087807;28;23187;-73
2023/01/19 02:32:48;;;;;;;;;5.00;5.00;;;;;-144.24;100.00;60536.00;5064547;28;8833;-74
2023/01/19 02:35:14;;;;;;;;;13.00;9.00;;;;;-144.24;100.00;60536.00;5065015;28;9550;-73
2023/01/19 02:37:40;;;;;;;;;17.25;7.50;;;;;-144.24;100.00;60536.00;5059129;28;8791;-73
2023/01/19 02:40:11;;;;;;;;;9.75;4.50;;;;;-144.24;100.00;60536.00;5065730;28;8789;-77
2023/01/19 02:42:47;;;;;;;;;11.00;6.00;;;;;-144.24;100.00;60536.00;5066848;28;8780;-73
2023/01/19 02:45:15;;;;;;;;;8.00;8.00;;;;;-144.24;100.00;60536.00;5081968;28;8826;-74
2023/01/19 02:47:46;;;;;;;;;9.50;6.00;;;;;-144.24;100.00;60536.00;5074617;28;8822;-74
2023/01/19 02:50:37;;;;;;;;;8.50;6.00;;;;;-144.24;100.00;60536.00;5081479;28;8834;-74
2023/01/19 02:53:27;;;;;;;;;8.00;5.00;;;;;-144.24;100.00;60536.00;5089689;28;8821;-72
2023/01/19 02:55:56;;;;;;;;;8.25;5.00;;;;;-144.24;100.00;60536.00;5076126;28;8839;-74
2023/01/19 02:58:31;;;;;;;;;10.25;5.75;;;;;-144.24;100.00;60536.00;5061302;28;8803;-73
2023/01/19 03:01:04;;;;;;;;;8.00;8.00;;;;;-144.24;100.00;60536.00;5066693;28;8820;-76
2023/01/19 03:03:45;;;;;;;;;11.75;8.75;;;;;-144.24;100.00;60536.00;5062954;28;8802;-76
2023/01/19 03:06:13;;;;;;;;;9.00;8.00;;;;;-144.24;100.00;60536.00;5070987;28;8835;-77
2023/01/19 03:08:45;;;;;;;;;9.25;8.00;;;;;-144.24;100.00;60536.00;5085062;28;8801;-75
2023/01/19 03:11:11;;;;;;;;;13.50;9.25;;;;;-144.24;100.00;60536.00;5085107;28;8872;-73
2023/01/19 03:13:40;;;;;;;;;12.25;8.75;;;;;-144.24;100.00;60536.00;5069288;28;8811;-75
2023/01/19 03:16:20;;;;;;;;;12.75;8.25;;;;;-144.24;100.00;60536.00;5075951;28;8792;-74
2023/01/19 03:18:51;;;;;;;;;11.25;8.50;;;;;-144.24;100.00;60536.00;5074182;28;8817;-73
2023/01/19 03:21:18;;;;;;;;;9.75;9.75;;;;;-144.24;100.00;60536.00;5069114;28;8807;-74
2023/01/19 03:23:45;;;;;;;;;9.75;8.00;;;;;-144.24;100.00;60536.00;5079741;28;8947;-75
2023/01/19 03:26:15;;;;;;;;;9.25;8.50;;;;;-144.24;100.00;60536.00;5064793;28;8829;-77
2023/01/19 03:28:41;;;;;;;;;15.75;12.00;;;;;-144.24;100.00;60536.00;5062387;28;8811;-76
2023/01/19 03:31:13;;;;;;;;;16.25;11.00;;;;;-144.24;100.00;60536.00;5056772;28;19770;-73
2023/01/19 03:33:41;;;;;;;;;12.75;9.00;;;;;-144.24;100.00;60536.00;5067869;28;8846;-74
2023/01/19 03:36:17;;;;;;;;;12.00;8.00;;;;;-144.24;100.00;60536.00;5067883;28;8816;-76
2023/01/19 03:38:45;;;;;;;;;11.25;9.75;;;;;-144.24;100.00;60536.00;5090537;28;8812;-75
2023/01/19 03:41:14;;;;;;;;;16.75;10.25;;;;;-144.24;100.00;60536.00;5071724;28;8847;-74
2023/01/19 03:43:40;;;;;;;;;12.00;9.00;;;;;-144.24;100.00;60536.00;5078529;28;9530;-75
2023/01/19 03:46:06;;;;;;;;;11.00;10.50;;;;;-144.24;100.00;60536.00;5084357;28;8910;-74
2023/01/19 03:48:32;;;;;;;;;8.50;7.50;;;;;-144.24;100.00;60536.00;5080913;28;10829;-73
2023/01/19 03:51:02;;;;;;;;;12.00;10.25;;;;;-144.24;100.00;60536.00;5053990;28;23306;-74
2023/01/19 03:53:27;;;;;;;;;9.50;8.25;;;;;-144.24;100.00;60536.00;5080532;28;8819;-77
2023/01/19 03:55:53;;;;;;;;;10.25;9.00;;;;;-144.24;100.00;60536.00;5077763;28;21204;-76
2023/01/19 03:58:19;;;;;;;;;12.25;8.00;;;;;-144.24;100.00;60536.00;5059979;28;9531;-73
2023/01/19 04:00:44;;;;;;;;;9.50;8.00;;;;;-144.24;100.00;60536.00;5084523;28;8905;-73
2023/01/19 04:03:13;;;;;;;;;14.25;9.00;;;;;-144.24;100.00;60536.00;5080256;28;18603;-76
2023/01/19 04:05:38;;;;;;;;;11.75;7.25;;;;;-144.24;100.00;60536.00;5064569;28;9744;-77
2023/01/19 04:08:04;;;;;;;;;13.50;9.50;;;;;-144.24;100.00;60536.00;5086348;28;8954;-74
2023/01/19 04:10:29;;;;;;;;;12.50;10.25;;;;;-144.24;100.00;60536.00;5083535;28;8865;-74
2023/01/19 04:12:58;;;;;;;;;10.00;5.75;;;;;-144.24;100.00;60536.00;5080004;28;22995;-75
2023/01/19 04:15:24;;;;;;;;;9.75;6.00;;;;;-144.24;100.00;60536.00;5087867;28;8796;-76
2023/01/19 04:17:49;;;;;;;;;8.75;8.75;;;;;-144.24;100.00;60536.00;5086566;28;8860;-77
2023/01/19 04:20:15;;;;;;;;;9.75;8.00;;;;;-144.24;100.00;60536.00;5084336;28;13287;-73
2023/01/19 04:22:41;;;;;;;;;6.00;6.00;;;;;-144.24;100.00;60536.00;5088367;28;8852;-75
2023/01/19 04:25:07;;;;;;;;;9.50;8.75;;;;;-144.24;100.00;60536.00;5076019;28;8823;-74
2023/01/19 04:27:33;;;;;;;;;7.00;6.00;;;;;-144.24;100.00;60536.00;5053562;28;8913;-74
2023/01/19 04:29:59;;;;;;;;;12.50;6.50;;;;;-144.24;100.00;60536.00;5066011;28;9608;-73
2023/01/19 04:32:24;;;;;;;;;11.50;8.25;;;;;-144.24;100.00;60536.00;5087515;28;8804;-75
2023/01/19 04:34:50;;;;;;;;;10.25;5.50;;;;;-144.24;100.00;60536.00;5080904;28;8858;-74
2023/01/19 04:37:16;;;;;;;;;11.25;5.75;;;;;-144.24;100.00;60536.00;5064913;28;8816;-73
2023/01/19 04:39:41;;;;;;;;;10.00;8.00;;;;;-144.24;100.00;60536.00;5062807;28;8799;-74
2023/01/19 04:42:07;;;;;;;;;12.75;7.75;;;;;-144.24;100.00;60536.00;5087166;28;8864;-73
2023/01/19 04:44:32;;;;;;;;;8.25;8.25;;;;;-144.24;100.00;60536.00;5076678;28;14994;-76
2023/01/19 04:46:58;;;;;;;;;9.25;8.50;;;;;-144.24;100.00;60536.00;5078906;28;8829;-73
2023/01/19 04:49:23;;;;;;;;;12.50;9.50;;;;;-144.24;100.00;60536.00;5084575;28;18901;-73
2023/01/19 04:51:48;;;;;;;;;11.75;8.00;;;;;-144.24;100.00;60536.00;5086721;28;21499;-73
2023/01/19 04:54:14;;;;;;;;;13.50;8.00;;;;;-144.24;100.00;60536.00;5071542;28;8828;-73
2023/01/19 04:56:42;;;;;;;;;10.75;8.00;;;;;-144.24;100.00;60536.00;5076919;28;21617;-76
2023/01/19 04:59:07;;;;;;;;;7.00;6.00;;;;;-144.24;100.00;60536.00;5086529;28;8784;-73
2023/01/19 05:01:32;;;;;;;;;7.00;4.50;;;;;-144.24;100.00;60536.00;5082925;28;20483;-74
2023/01/19 05:03:58;;;;;;;;;9.25;5.00;;;;;-144.24;100.00;60536.00;5074362;28;17327;-74
2023/01/19 05:06:24;;;;;;;;;8.75;6.00;;;;;-144.24;100.00;60536.00;5083529;28;8788;-75
2023/01/19 05:08:49;;;;;;;;;5.00;5.00;;;;;-144.24;100.00;60536.00;5083009;28;8880;-74
2023/01/19 05:11:15;;;;;;;;;8.75;6.00;;;;;-144.24;100.00;60536.00;5079755;28;8815;-75
2023/01/19 05:13:40;;;;;;;;;6.00;6.00;;;;;-144.24;100.00;60536.00;5075622;28;21530;-74
2023/01/19 05:16:06;;;;;;;;;8.50;5.75;;;;;-144.24;100.00;60536.00;5083397;28;8792;-76
2023/01/19 05:18:34;;;;;;;;;8.00;8.00;;;;;-144.24;100.00;60536.00;5078851;28;8832;-76
2023/01/19 05:21:01;;;;;;;;;14.00;9.00;;;;;-144.24;100.00;60536.00;5077484;28;8795;-74
2023/01/19 05:23:26;;;;;;;;;6.50;4.00;;;;;-144.24;100.00;60536.00;5073435;28;8923;-76
2023/01/19 05:25:52;;;;;;;;;7.50;5.50;;;;;-144.24;100.00;60536.00;5077578;28;8819;-73
2023/01/19 05:28:17;;;;;;;;;3.25;1.75;;;;;-144.24;100.00;60536.00;5071351;28;22732;-75
2023/01/19 05:30:43;;;;;;;;;7.50;7.50;;;;;-144.24;100.00;60536.00;5081351;28;9000;-76
2023/01/19 05:33:08;;;;;;;;;8.50;6.75;;;;;-144.24;100.00;60536.00;5072067;28;8861;-74
2023/01/19 05:35:33;;;;;;;;;11.00;8.00;;;;;-144.24;100.00;60536.00;5080238;28;8927;-73
2023/01/19 05:37:59;;;;;;;;;10.25;5.75;;;;;-144.24;100.00;60536.00;5088935;28;18727;-74
2023/01/19 05:40:25;;;;;;;;;9.50;9.00;;;;;-144.24;100.00;60536.00;5081641;28;8792;-74
2023/01/19 05:42:52;;;;;;;;;11.75;6.75;;;;;-144.24;100.00;60536.00;5078402;28;8835;-73
2023/01/19 05:45:17;;;;;;;;;15.00;8.50;;;;;-144.24;100.00;60536.00;5074760;28;9676;-73
2023/01/19 05:47:42;;;;;;;;;7.00;6.50;;;;;-144.24;100.00;60536.00;5068190;28;24472;-74
2023/01/19 05:50:08;;;;;;;;;7.25;6.25;;;;;-144.24;100.00;60536.00;5086700;28;20578;-77
2023/01/19 05:52:33;;;;;;;;;8.00;8.00;;;;;-144.24;100.00;60536.00;5076990;28;8890;-76
2023/01/19 05:54:59;;;;;;;;;11.00;7.00;;;;;-144.24;100.00;60536.00;5070114;28;21652;-74
2023/01/19 05:57:24;;;;;;;;;9.00;7.00;;;;;-144.24;100.00;60536.00;5069984;28;18767;-74
2023/01/19 05:59:49;;;;;;;;;6.50;4.50;;;;;-144.24;100.00;60536.00;5070957;28;8824;-74
2023/01/19 06:02:15;;;;;;;;;7.50;5.25;;;;;-144.24;100.00;60536.00;5077578;28;8828;-73
2023/01/19 06:04:41;;;;;;;;;8.75;4.50;;;;;-144.24;100.00;60536.00;5084383;28;8849;-76
2023/01/19 06:07:06;;;;;;;;;7.25;7.25;;;;;-144.24;100.00;60536.00;5077865;28;20307;-76
2023/01/19 06:09:32;;;;;;;;;8.00;5.50;;;;;-144.24;100.00;60536.00;5079679;28;18283;-73
2023/01/19 06:11:58;;;;;;;;;11.50;5.00;;;;;-144.24;100.00;60536.00;5081102;28;8896;-75
2023/01/19 06:14:25;;;;;;;;;7.00;4.25;;;;;-144.24;100.00;60536.00;5084309;28;8839;-73
2023/01/19 06:16:50;;;;;;;;;6.25;4.75;;;;;-144.24;100.00;60536.00;5081500;28;8785;-73
2023/01/19 06:19:16;;;;;;;;;6.25;5.00;;;;;-144.24;100.00;60536.00;5079244;28;9608;-77
2023/01/19 06:21:41;;;;;;;;;7.50;5.75;;;;;-144.24;100.00;60536.00;5069447;28;21357;-74
2023/01/19 06:24:08;;;;;;;;;8.00;7.00;;;;;-144.24;100.00;60536.00;5078524;28;8842;-75
2023/01/19 06:26:34;;;;;;;;;9.00;5.75;;;;;-144.24;100.00;60536.00;5085279;28;8795;-75
2023/01/19 06:28:59;;;;;;;;;9.75;8.00;;;;;-144.24;100.00;60536.00;5082121;28;18512;-75
2023/01/19 06:31:24;;;;;;;;;8.25;5.50;;;;;-144.24;100.00;60536.00;5086127;28;17788;-75
2023/01/19 06:33:50;;;;;;;;;8.75;6.00;;;;;-144.24;100.00;60536.00;5080769;28;8840;-73
2023/01/19 06:36:15;;;;;;;;;9.25;6.75;;;;;-144.24;100.00;60536.00;5076221;28;8795;-75
2023/01/19 06:38:41;;;;;;;;;2.75;1.00;;;;;-144.24;100.00;60536.00;5089859;28;22576;-76
2023/01/19 06:41:06;;;;;;;;;7.25;3.50;;;;;-144.24;100.00;60536.00;5091302;28;22225;-74
2023/01/19 06:43:31;;;;;;;;;8.25;4.75;;;;;-144.24;100.00;60536.00;5090218;28;21452;-74
2023/01/19 06:45:59;;;;;;;;;7.75;7.75;;;;;-144.24;100.00;60536.00;5085640;28;23746;-74
2023/01/19 06:48:24;;;;;;;;;6.25;5.00;;;;;-144.24;100.00;60536.00;5088761;28;8800;-74
2023/01/19 06:50:50;;;;;;;;;5.00;5.00;;;;;-144.24;100.00;60536.00;5084285;28;8823;-74
2023/01/19 06:53:16;;;;;;;;;11.50;7.00;;;;;-144.24;100.00;60536.00;5087811;28;8848;-73
2023/01/19 06:55:42;;;;;;;;;8.00;4.25;;;;;-144.24;100.00;60536.00;5068225;28;8823;-74
2023/01/19 06:58:08;;;;;;;;;8.00;4.25;;;;;-144.24;100.00;60536.00;5077825;28;8803;-76
2023/01/19 07:00:34;;;;;;;;;11.25;5.50;;;;;-144.24;100.00;60536.00;5079005;28;8819;-74
2023/01/19 07:02:59;;;;;;;;;9.25;8.00;;;;;-144.24;100.00;60536.00;5082533;28;9543;-73
2023/01/19 07:05:24;;;;;;;;;2.00;2.00;;;;;-144.24;100.00;60536.00;5079847;28;20746;-73
2023/01/19 07:07:51;;;;;;;;;4.25;4.25;;;;;-144.24;100.00;60536.00;5076113;28;8851;-74
2023/01/19 07:10:16;;;;;;;;;7.25;4.00;;;;;-144.24;100.00;60536.00;5081848;28;8819;-74
2023/01/19 07:12:45;;;;;;;;;4.00;4.00;;;;;-144.24;100.00;60536.00;5076596;28;17033;-74
2023/01/19 07:15:10;;;;;;;;;6.25;4.00;;;;;-144.24;100.00;60536.00;5082983;28;8806;-75
2023/01/19 07:17:36;;;;;;;;;6.25;5.00;;;;;-144.24;100.00;60536.00;5087706;28;8808;-74
2023/01/19 07:20:02;;;;;;;;;5.75;5.50;;;;;-144.24;100.00;60536.00;5080175;28;8808;-76
2023/01/19 07:22:27;;;;;;;;;5.00;5.00;;;;;-144.24;100.00;60536.00;5078135;28;8801;-76
2023/01/19 07:24:53;;;;;;;;;7.00;6.25;;;;;-144.24;100.00;60536.00;5082158;28;20539;-75
2023/01/19 07:27:18;;;;;;;;;4.00;4.00;;;;;-144.24;100.00;60536.00;5073599;28;22018;-74
2023/01/19 07:29:43;;;;;;;;;3.50;3.50;;;;;-144.24;100.00;60536.00;5073882;28;15502;-74
2023/01/19 07:32:09;;;;;;;;;11.75;5.50;;;;;-144.24;100.00;60536.00;5077319;28;8821;-73
2023/01/19 07:34:35;;;;;;;;;8.50;4.00;;;;;-144.24;100.00;60536.00;5081851;28;8975;-75
2023/01/19 07:37:00;;;;;;;;;4.00;4.00;;;;;-144.24;100.00;60536.00;5074616;28;8791;-76
2023/01/19 07:39:26;;;;;;;;;4.00;4.00;;;;;-144.24;100.00;60536.00;5082650;28;8801;-75
2023/01/19 07:41:51;;;;;;;;;6.50;6.50;;;;;-144.24;100.00;60536.00;5068186;28;8792;-75
2023/01/19 07:44:17;;;;;;;;;5.25;5.25;;;;;-144.24;100.00;60536.00;5073146;28;21701;-75
2023/01/19 07:46:43;;;;;;;;;2.00;2.00;;;;;-144.24;100.00;60536.00;5059053;28;8797;-76
2023/01/19 07:49:08;;;;;;;;;3.50;3.50;;;;;-144.24;100.00;60536.00;5083269;28;8809;-76
2023/01/19 07:51:35;;;;;;;;;5.00;3.00;;;;;-144.24;100.00;60536.00;5080562;28;8808;-77
2023/01/19 07:54:00;;;;;;;;;7.25;4.25;;;;;-144.24;100.00;60536.00;5078998;28;8808;-76
2023/01/19 07:56:28;;;;;;;;;4.00;4.00;;;;;-144.24;100.00;60536.00;5084163;28;8842;-75
2023/01/19 07:58:54;;;;;;;;;5.25;4.00;;;;;-144.24;100.00;60536.00;5080918;28;8799;-76
2023/01/19 08:01:19;;;;;;;;;7.75;6.00;;;;;-144.24;100.00;60536.00;5083635;28;8820;-73
2023/01/19 08:03:47;;;;;;;;;6.50;5.00;;;;;-144.24;100.00;60536.00;5063540;28;8838;-74
2023/01/19 08:06:22;;;;;;;;;9.00;6.50;;;;;-144.24;100.00;60536.00;5081285;28;8800;-77
2023/01/19 08:08:47;;;;;;;;;3.50;2.00;;;;;-144.24;100.00;60536.00;5073852;28;8863;-75
2023/01/19 08:11:14;;;;;;;;;2.00;2.00;;;;;-144.24;100.00;60536.00;5077653;28;25085;-75
2023/01/19 08:13:39;;;;;;;;;7.00;4.00;;;;;-144.24;100.00;60536.00;5080209;28;8901;-75
2023/01/19 08:16:05;;;;;;;;;10.75;5.25;;;;;-144.24;100.00;60536.00;5081853;28;9505;-74
2023/01/19 08:18:30;;;;;;;;;5.75;4.00;;;;;-144.24;100.00;60536.00;5078310;28;9609;-76
2023/01/19 08:20:57;;;;;;;;;3.00;3.00;;;;;-144.24;100.00;60536.00;5083021;28;19237;-75
2023/01/19 08:23:23;;;;;;;;;10.00;5.00;;;;;-144.24;100.00;60536.00;5083487;28;8821;-75
2023/01/19 08:25:48;;;;;;;;;6.50;5.00;;;;;-144.24;100.00;60536.00;5079839;28;13613;-74
2023/01/19 08:28:15;;;;;;;;;5.25;4.75;;;;;-144.24;100.00;60536.00;5079719;28;22354;-74
2023/01/19 08:30:42;;;;;;;;;4.50;4.25;;;;;-144.24;100.00;60536.00;5057305;28;8856;-74
2023/01/19 08:33:07;;;;;;;;;2.00;2.00;;;;;-144.24;100.00;60536.00;5082133;28;8839;-75
2023/01/19 08:35:35;;;;;;;;;2.00;1.00;;;;;-144.24;100.00;60536.00;5081857;28;19043;-74
2023/01/19 08:38:01;;;;;;;;;5.25;3.00;;;;;-144.24;100.00;60536.00;5084020;28;8835;-74
2023/01/19 08:40:28;;;;;;;;;4.00;4.00;;;;;-144.24;100.00;60536.00;5062018;28;8843;-73
2023/01/19 08:42:59;;;;;;;;;6.00;5.00;;;;;-144.24;100.00;60536.00;5080964;28;8828;-73
2023/01/19 08:45:26;;;;;;;;;5.75;4.00;;;;;-144.24;100.00;60536.00;5082940;28;8811;-73
2023/01/19 08:47:51;;;;;;;;;4.75;4.75;;;;;-144.24;100.00;60536.00;5080944;28;8803;-74
2023/01/19 08:50:16;;;;;;;;;9.25;4.00;;;;;-144.24;100.00;60536.00;5080202;28;9610;-76
2023/01/19 08:52:42;;;;;;;;;6.50;4.25;;;;;-144.24;100.00;60536.00;5079272;28;8881;-74
2023/01/19 08:55:08;;;;;;;;;4.00;3.50;;;;;-144.24;100.00;60536.00;5081824;28;19731;-77
2023/01/19 08:57:33;;;;;;;;;2.50;2.50;;;;;-144.24;100.00;60536.00;5080319;28;8793;-75
2023/01/19 08:59:59;;;;;;;;;5.00;3.50;;;;;-144.24;100.00;60536.00;5076490;28;8836;-75
2023/01/19 09:02:24;;;;;;;;;4.25;4.00;;;;;-144.24;100.00;60536.00;5076148;28;8850;-74
2023/01/19 09:04:50;;;;;;;;;5.50;5.50;;;;;-144.24;100.00;60536.00;5079603;28;8890;-75
2023/01/19 09:07:17;;;;;;;;;5.75;4.00;;;;;-144.24;100.00;60536.00;5060609;28;9594;-73
2023/01/19 09:09:42;;;;;;;;;8.25;5.00;;;;;-144.24;100.00;60536.00;5079732;28;10043;-74
2023/01/19 09:12:07;;;;;;;;;8.00;3.50;;;;;-144.24;100.00;60536.00;5078077;28;21733;-75
2023/01/19 09:14:33;;;;;;;;;8.50;5.00;;;;;-144.24;100.00;60536.00;5058356;28;22393;-74
2023/01/19 09:16:58;;;;;;;;;2.00;2.00;;;;;-144.24;100.00;60536.00;5077078;28;21342;-74
2023/01/19 09:19:23;;;;;;;;;5.25;2.00;;;;;-144.24;100.00;60536.00;5078027;28;8871;-75
2023/01/19 09:21:49;;;;;;;;;4.75;4.75;;;;;-144.24;100.00;60536.00;5081180;28;15184;-75
2023/01/19 09:24:15;;;;;;;;;5.00;2.50;;;;;-144.24;100.00;60536.00;5081294;28;8843;-74
2023/01/19 09:26:40;;;;;;;;;8.00;4.00;;;;;-144.24;100.00;60536.00;5085687;28;21622;-74
2023/01/19 09:29:05;;;;;;;;;5.50;4.25;;;;;-144.24;100.00;60536.00;5083195;28;9559;-74
2023/01/19 09:31:31;;;;;;;;;5.75;5.00;;;;;-144.24;100.00;60536.00;5078723;28;8859;-74
2023/01/19 09:33:56;;;;;;;;;14.50;5.75;;;;;-144.24;100.00;60536.00;5083969;28;23516;-77
2023/01/19 09:36:21;;;;;;;;;6.00;6.00;;;;;-144.24;100.00;60536.00;5082864;28;14027;-74
2023/01/19 09:38:47;;;;;;;;;7.50;3.50;;;;;-144.24;100.00;60536.00;5084862;28;20443;-73
2023/01/19 09:41:20;;;;;;;;;9.50;6.00;;;;;-144.24;100.00;60536.00;5080094;28;8783;-74
2023/01/19 09:43:58;;;;;;;;;10.25;6.75;;;;;-144.24;100.00;60536.00;5061528;28;8804;-73
2023/01/19 09:46:50;;;;;;;;;6.00;5.75;;;;;-144.24;100.00;60536.00;5070790;28;8800;-72
2023/01/19 09:49:27;;;;;;;;;9.25;9.25;;;;;-144.24;100.00;60536.00;5043280;28;9098;-73
2023/01/19 09:51:52;;;;;;;;;9.50;6.75;;;;;-144.24;100.00;60536.00;5084861;28;9591;-74
2023/01/19 09:54:34;;;;;;;;;4.50;4.50;;;;;-144.24;100.00;60536.00;5065860;28;8848;-75
2023/01/19 09:57:00;;;;;;;;;6.25;6.25;;;;;-144.24;100.00;60536.00;5084654;28;8809;-73
2023/01/19 09:59:28;;;;;;;;;14.75;9.25;;;;;-144.24;100.00;60536.00;5081164;28;8897;-73
2023/01/19 10:02:11;;;;;;;;;14.25;9.50;;;;;-144.24;100.00;60536.00;5206090;22;8829;-72
2023/01/19 10:04:40;;;;;;;;;12.00;8.00;;;;;-144.24;100.00;60536.00;5105385;28;9525;-73
2023/01/19 10:07:39;;;;;;;;;9.00;5.00;;;;;-144.24;100.00;60536.00;5100797;28;8820;-74
2023/01/19 10:10:14;;;;;;;;;8.00;8.00;;;;;-144.24;100.00;60536.00;5108698;27;8874;-73
2023/01/19 10:13:10;;;;;;;;;7.00;7.00;;;;;-144.24;100.00;60536.00;5100772;28;8765;-73
2023/01/19 10:16:06;;;;;;;;;12.25;6.75;;;;;-144.24;100.00;60536.00;5107569;28;8784;-72
2023/01/19 10:18:50;;;;;;;;;6.00;6.00;;;;;-144.24;100.00;60536.00;5109061;27;8793;-72
2023/01/19 10:21:22;;;;;;;;;11.75;9.00;;;;;-144.24;100.00;60536.00;5107922;27;8804;-72
2023/01/19 10:24:12;;;;;;;;;11.25;11.25;;;;;-144.24;100.00;60536.00;5114187;27;8789;-73
2023/01/19 10:26:44;;;;;;;;;12.25;8.00;;;;;-144.24;100.00;60536.00;5110224;27;8798;-71
2023/01/19 10:29:31;;;;;;;;;11.00;10.00;;;;;-144.24;100.00;60536.00;5115405;27;8815;-74
2023/01/19 10:32:06;;;;;;;;;6.25;6.25;;;;;-144.24;100.00;60536.00;5111463;27;8827;-73
2023/01/19 10:34:31;;;;;;;;;12.50;9.50;;;;;-144.24;100.00;60536.00;5110048;27;9738;-74
2023/01/19 10:37:11;;;;;;;;;10.50;8.50;;;;;-144.24;100.00;60536.00;5112475;27;8808;-75
2023/01/19 10:39:37;;;;;;;;;9.50;7.25;;;;;-144.24;100.00;60536.00;5104998;28;8857;-73
2023/01/19 10:42:03;;;;;;;;;10.75;9.00;;;;;-144.24;100.00;60536.00;5112368;27;24396;-72
2023/01/19 10:44:34;;;;;;;;;8.00;7.00;;;;;-144.24;100.00;60536.00;5112418;27;8792;-72
2023/01/19 10:47:01;;;;;;;;;9.50;9.25;;;;;-144.24;100.00;60536.00;5110789;27;8776;-73
2023/01/19 10:49:38;;;;;;;;;11.25;10.75;;;;;-144.24;100.00;60536.00;5108782;28;8828;-74
2023/01/19 10:52:05;;;;;;;;;15.25;10.25;;;;;-144.24;100.00;60536.00;5106824;28;8830;-74
2023/01/19 10:54:35;;;;;;;;;15.25;10.25;;;;;-144.24;100.00;60536.00;5112756;27;8800;-75
2023/01/19 10:57:03;;;;;;;;;17.25;11.25;;;;;-144.24;100.00;60536.00;5110840;27;8799;-73
2023/01/19 10:59:49;;;;;;;;;13.75;12.25;;;;;-144.24;100.00;60536.00;5112418;27;9732;-74
2023/01/19 11:02:20;;;;;;;;;11.25;11.25;;;;;-144.24;100.00;60536.00;5109150;28;9008;-75
2023/01/19 11:04:48;;;;;;;;;15.00;13.50;;;;;-144.24;100.00;60536.00;5113119;27;8785;-76
2023/01/19 11:07:21;;;;;;;;;22.00;10.50;;;;;-144.24;100.00;60536.00;5110731;27;8799;-75
2023/01/19 11:09:47;;;;;;;;;12.75;11.00;;;;;-144.24;100.00;60536.00;5111221;28;8788;-75
2023/01/19 11:12:22;;;;;;;;;13.75;9.00;;;;;-144.24;100.00;60536.00;5111689;27;8824;-75
2023/01/19 11:14:49;;;;;;;;;15.00;10.75;;;;;-144.24;100.00;60536.00;5112364;27;9034;-77
2023/01/19 11:17:19;;;;;;;;;12.25;12.25;;;;;-144.24;100.00;60536.00;5112535;27;8769;-74
2023/01/19 11:19:52;;;;;;;;;13.00;11.25;;;;;-144.24;100.00;60536.00;5108445;27;8787;-76
2023/01/19 11:22:23;;;;;;;;;11.75;9.75;;;;;-144.24;100.00;60536.00;5111338;28;9581;-75
2023/01/19 11:24:49;;;;;;;;;15.50;10.00;;;;;-144.24;100.00;60536.00;5111530;27;8800;-74